Doyle Atmospheric Data: 04/18/2019 Summary  Detailed Graphs  Station List

  Temperature     Wind Precipitation Visibility
Timestamp Air Wet
Bulb
Dew-
point
24-hr
Max
24-hr
Min
Relative
Humidity
Atmospheric
Pressure
Avg
Speed
Avg
Dir
Spot
Speed
Spot
Dir
Max
Speed
Max
Dir
  Rate Situation Start End 1 hr 3 hr 6 hr 12 hr 24 hr   Situation
Date Time °F °F °F °F °F % in Hg mph ° mph ° mph ° Y/N in/hr text Date Time Date Time in in in in in mi text
04/18/2019 12:04 AM 42.80 40.10 37.04 68.18 28.04 79.0 Not Reported 2.68 SW 2.46 S 3.13 SW No 0.000 No Precipitation 04/16/2019 10:52 AM 04/16/2019 11:09 AM 0.000 0.000 0.000 0.000 0.000 Not Reported Not Reported
04/18/2019 12:09 AM 44.42 40.82 36.86 68.18 28.04 74.0 Not Reported 2.24 SW 2.24 S 3.13 SW No 0.000 No Precipitation 04/16/2019 10:52 AM 04/16/2019 11:09 AM 0.000 0.000 0.000 0.000 0.000 Not Reported Not Reported
04/18/2019 12:14 AM 43.70 40.28 36.14 68.18 28.04 74.0 Not Reported 2.24 S 2.01 S 3.13 S No 0.000 No Precipitation 04/16/2019 10:52 AM 04/16/2019 11:09 AM 0.000 0.000 0.000 0.000 0.000 Not Reported Not Reported
04/18/2019 12:19 AM 43.16 40.10 36.68 68.18 28.04 77.0 Not Reported 1.79 S 0.89 SE 3.13 S No 0.000 No Precipitation 04/16/2019 10:52 AM 04/16/2019 11:09 AM 0.000 0.000 0.000 0.000 0.000 Not Reported Not Reported
04/18/2019 12:24 AM 43.34 40.10 36.14 68.18 28.04 75.0 Not Reported 0.89 S 1.12 S 2.46 S No 0.000 No Precipitation 04/16/2019 10:52 AM 04/16/2019 11:09 AM 0.000 0.000 0.000 0.000 0.000 Not Reported Not Reported
04/18/2019 12:29 AM 42.62 39.74 35.96 68.18 28.04 77.0 Not Reported 0.45 SE 0.00 SE 2.46 S No 0.000 No Precipitation 04/16/2019 10:52 AM 04/16/2019 11:09 AM 0.000 0.000 0.000 0.000 0.000 Not Reported Not Reported
04/18/2019 12:34 AM 43.34 40.46 37.22 68.18 28.04 78.0 Not Reported 1.34 E 1.34 E 1.34 S No 0.000 No Precipitation 04/16/2019 10:52 AM 04/16/2019 11:09 AM 0.000 0.000 0.000 0.000 0.000 Not Reported Not Reported
04/18/2019 12:39 AM 43.16 40.10 36.68 68.18 28.04 77.0 Not Reported 0.00 S 0.89 S 1.34 S No 0.000 No Precipitation 04/16/2019 10:52 AM 04/16/2019 11:09 AM 0.000 0.000 0.000 0.000 0.000 Not Reported Not Reported
04/18/2019 12:44 AM 42.80 39.92 36.68 68.18 28.04 78.0 Not Reported 1.79 S 1.79 SW 1.57 E No 0.000 No Precipitation 04/16/2019 10:52 AM 04/16/2019 11:09 AM 0.000 0.000 0.000 0.000 0.000 Not Reported Not Reported
04/18/2019 12:49 AM 43.70 40.82 37.22 68.18 28.04 77.0 Not Reported 2.46 S 2.91 SE 1.57 E No 0.000 No Precipitation 04/16/2019 10:52 AM 04/16/2019 11:09 AM 0.000 0.000 0.000 0.000 0.000 Not Reported Not Reported
04/18/2019 12:54 AM 44.24 41.00 37.22 68.18 28.04 76.0 Not Reported 2.91 SE 2.68 SE 3.13 SE No 0.000 No Precipitation 04/16/2019 10:52 AM 04/16/2019 11:09 AM 0.000 0.000 0.000 0.000 0.000 Not Reported Not Reported
04/18/2019 12:59 AM 44.06 40.64 36.68 68.18 28.04 75.0 Not Reported 2.68 SE 2.46 S 3.13 SE No 0.000 No Precipitation 04/16/2019 10:52 AM 04/16/2019 11:09 AM 0.000 0.000 0.000 0.000 0.000 Not Reported Not Reported
04/18/2019 01:04 AM 43.70 40.46 36.68 68.18 28.04 76.0 Not Reported 2.68 SE 3.36 SE 3.13 SE No 0.000 No Precipitation 04/16/2019 10:52 AM 04/16/2019 11:09 AM 0.000 0.000 0.000 0.000 0.000 Not Reported Not Reported
04/18/2019 01:09 AM 43.34 40.46 37.04 68.18 28.04 77.0 Not Reported 3.80 SE 3.80 E 3.13 SE No 0.000 No Precipitation 04/16/2019 10:52 AM 04/16/2019 11:09 AM 0.000 0.000 0.000 0.000 0.000 Not Reported Not Reported
04/18/2019 01:14 AM 41.90 39.56 36.50 68.18 28.04 80.0 Not Reported 2.91 SE 2.91 SE 4.70 SE No 0.000 No Precipitation 04/16/2019 10:52 AM 04/16/2019 11:09 AM 0.000 0.000 0.000 0.000 0.000 Not Reported Not Reported
04/18/2019 01:19 AM 41.18 38.84 35.96 68.18 28.04 81.0 Not Reported 2.91 S 3.58 S 4.70 SE No 0.000 No Precipitation 04/16/2019 10:52 AM 04/16/2019 11:09 AM 0.000 0.000 0.000 0.000 0.000 Not Reported Not Reported
04/18/2019 01:24 AM 40.10 38.30 35.78 68.18 28.04 84.0 Not Reported 3.80 S 3.13 S 4.03 SE No 0.000 No Precipitation 04/16/2019 10:52 AM 04/16/2019 11:09 AM 0.000 0.000 0.000 0.000 0.000 Not Reported Not Reported
04/18/2019 01:29 AM 40.64 38.66 36.32 68.18 28.04 84.0 Not Reported 2.68 S 2.91 S 4.03 SE No 0.000 No Precipitation 04/16/2019 10:52 AM 04/16/2019 11:09 AM 0.000 0.000 0.000 0.000 0.000 Not Reported Not Reported
04/18/2019 01:34 AM 40.82 38.66 36.14 68.18 28.04 83.0 Not Reported 3.58 S 3.36 S 4.03 S No 0.000 No Precipitation 04/16/2019 10:52 AM 04/16/2019 11:09 AM 0.000 0.000 0.000 0.000 0.000 Not Reported Not Reported
04/18/2019 01:39 AM 40.82 38.66 35.96 68.18 28.04 82.0 Not Reported 2.91 S 2.24 SW 4.03 S No 0.000 No Precipitation 04/16/2019 10:52 AM 04/16/2019 11:09 AM 0.000 0.000 0.000 0.000 0.000 Not Reported Not Reported
04/18/2019 01:44 AM 40.64 38.48 35.78 68.18 28.04 82.0 Not Reported 2.01 S 2.46 SE 3.80 S No 0.000 No Precipitation 04/16/2019 10:52 AM 04/16/2019 11:09 AM 0.000 0.000 0.000 0.000 0.000 Not Reported Not Reported
04/18/2019 01:49 AM 41.18 38.84 35.78 68.18 28.04 81.0 Not Reported 2.46 SE 2.24 SE 3.80 S No 0.000 No Precipitation 04/16/2019 10:52 AM 04/16/2019 11:09 AM 0.000 0.000 0.000 0.000 0.000 Not Reported Not Reported
04/18/2019 01:54 AM 42.26 39.92 37.22 68.18 28.04 81.0 Not Reported 4.03 S 4.03 S 2.91 SE No 0.000 No Precipitation 04/16/2019 10:52 AM 04/16/2019 11:09 AM 0.000 0.000 0.000 0.000 0.000 Not Reported Not Reported
04/18/2019 01:59 AM 42.26 39.74 36.86 68.18 28.04 80.0 Not Reported 3.58 S 2.24 S 2.91 SE No 0.000 No Precipitation 04/16/2019 10:52 AM 04/16/2019 11:09 AM 0.000 0.000 0.000 0.000 0.000 Not Reported Not Reported
04/18/2019 02:04 AM 41.36 39.38 36.86 68.18 28.04 83.0 Not Reported 4.25 SE 3.58 SE 4.47 S No 0.000 No Precipitation 04/16/2019 10:52 AM 04/16/2019 11:09 AM 0.000 0.000 0.000 0.000 0.000 Not Reported Not Reported
04/18/2019 02:09 AM 40.10 38.30 36.14 68.18 28.04 85.0 Not Reported 2.01 SE 3.13 SE 4.47 S No 0.000 No Precipitation 04/16/2019 10:52 AM 04/16/2019 11:09 AM 0.000 0.000 0.000 0.000 0.000 Not Reported Not Reported
04/18/2019 02:14 AM 39.74 37.94 35.96 68.18 28.04 86.0 Not Reported 5.37 SE 5.14 SE 4.92 SE No 0.000 No Precipitation 04/16/2019 10:52 AM 04/16/2019 11:09 AM 0.000 0.000 0.000 0.000 0.000 Not Reported Not Reported
04/18/2019 02:19 AM 38.84 37.40 35.42 68.18 28.04 87.0 Not Reported 4.70 SE 3.80 SE 4.92 SE No 0.000 No Precipitation 04/16/2019 10:52 AM 04/16/2019 11:09 AM 0.000 0.000 0.000 0.000 0.000 Not Reported Not Reported
04/18/2019 02:24 AM 38.48 37.22 35.78 68.18 28.04 90.0 Not Reported 4.25 SE 4.25 S 5.82 SE No 0.000 No Precipitation 04/16/2019 10:52 AM 04/16/2019 11:09 AM 0.000 0.000 0.000 0.000 0.000 Not Reported Not Reported
04/18/2019 02:29 AM 37.04 35.78 34.16 68.18 28.04 88.0 Not Reported 4.03 S 3.13 S 5.82 SE No 0.000 No Precipitation 04/16/2019 10:52 AM 04/16/2019 11:09 AM 0.000 0.000 0.000 0.000 0.000 Not Reported Not Reported
04/18/2019 02:34 AM 37.22 36.14 34.70 68.18 28.04 90.0 Not Reported 3.80 S 4.70 S 4.25 S No 0.000 No Precipitation 04/16/2019 10:52 AM 04/16/2019 11:09 AM 0.000 0.000 0.000 0.000 0.000 Not Reported Not Reported
04/18/2019 02:39 AM 37.58 36.50 34.88 68.18 28.04 89.0 Not Reported 5.14 S 4.03 S 4.25 S No 0.000 No Precipitation 04/16/2019 10:52 AM 04/16/2019 11:09 AM 0.000 0.000 0.000 0.000 0.000 Not Reported Not Reported
04/18/2019 02:44 AM 38.48 37.22 35.60 68.18 28.04 89.0 Not Reported 3.58 S 3.80 S 5.37 S No 0.000 No Precipitation 04/16/2019 10:52 AM 04/16/2019 11:09 AM 0.000 0.000 0.000 0.000 0.000 Not Reported Not Reported
04/18/2019 02:49 AM 39.92 38.12 35.78 68.18 28.04 85.0 Not Reported 3.36 S 3.36 SE 5.37 S No 0.000 No Precipitation 04/16/2019 10:52 AM 04/16/2019 11:09 AM 0.000 0.000 0.000 0.000 0.000 Not Reported Not Reported
04/18/2019 02:54 AM 40.46 38.12 35.24 68.18 28.04 81.0 Not Reported 2.91 S 3.13 S 4.03 SE No 0.000 No Precipitation 04/16/2019 10:52 AM 04/16/2019 11:09 AM 0.000 0.000 0.000 0.000 0.000 Not Reported Not Reported
04/18/2019 02:59 AM 39.20 36.86 33.80 68.18 28.04 81.0 Not Reported 3.36 S 3.80 S 4.03 SE No 0.000 No Precipitation 04/16/2019 10:52 AM 04/16/2019 11:09 AM 0.000 0.000 0.000 0.000 0.000 Not Reported Not Reported
04/18/2019 03:04 AM 39.02 37.22 35.06 68.18 28.04 85.0 Not Reported 4.03 S 4.47 S 3.80 S No 0.000 No Precipitation 04/16/2019 10:52 AM 04/16/2019 11:09 AM 0.000 0.000 0.000 0.000 0.000 Not Reported Not Reported
04/18/2019 03:09 AM 39.92 37.94 35.60 68.18 28.04 84.0 Not Reported 3.36 S 3.13 S 3.80 S No 0.000 No Precipitation 04/16/2019 10:52 AM 04/16/2019 11:09 AM 0.000 0.000 0.000 0.000 0.000 Not Reported Not Reported
04/18/2019 03:14 AM 40.28 38.12 35.06 68.18 28.04 81.0 Not Reported 3.58 SE 3.13 SE 4.47 S No 0.000 No Precipitation 04/16/2019 10:52 AM 04/16/2019 11:09 AM 0.000 0.000 0.000 0.000 0.000 Not Reported Not Reported
04/18/2019 03:19 AM 39.56 37.40 34.70 68.18 28.04 82.0 Not Reported 2.91 SE 2.91 SE 4.47 S No 0.000 No Precipitation 04/16/2019 10:52 AM 04/16/2019 11:09 AM 0.000 0.000 0.000 0.000 0.000 Not Reported Not Reported
04/18/2019 03:24 AM 38.30 36.50 34.16 68.18 28.04 84.0 Not Reported 3.58 SE 4.25 SE 4.03 SE No 0.000 No Precipitation 04/16/2019 10:52 AM 04/16/2019 11:09 AM 0.000 0.000 0.000 0.000 0.000 Not Reported Not Reported
04/18/2019 03:29 AM 39.38 37.76 35.60 68.18 28.04 85.0 Not Reported 3.36 SE 3.36 SE 4.03 SE No 0.000 No Precipitation 04/16/2019 10:52 AM 04/16/2019 11:09 AM 0.000 0.000 0.000 0.000 0.000 Not Reported Not Reported
04/18/2019 03:34 AM 38.84 37.04 34.52 68.18 28.04 83.0 Not Reported 2.46 SE 2.01 SE 4.25 SE No 0.000 No Precipitation 04/16/2019 10:52 AM 04/16/2019 11:09 AM 0.000 0.000 0.000 0.000 0.000 Not Reported Not Reported
04/18/2019 03:39 AM 37.76 35.96 33.80 68.18 28.04 85.0 Not Reported 2.24 SE 2.01 SE 4.25 SE No 0.000 No Precipitation 04/16/2019 10:52 AM 04/16/2019 11:09 AM 0.000 0.000 0.000 0.000 0.000 Not Reported Not Reported
04/18/2019 03:44 AM 38.48 37.04 35.06 68.18 28.04 87.0 Not Reported 3.13 SE 3.36 SE 3.36 SE No 0.000 No Precipitation 04/16/2019 10:52 AM 04/16/2019 11:09 AM 0.000 0.000 0.000 0.000 0.000 Not Reported Not Reported
04/18/2019 03:49 AM 38.30 36.86 34.88 68.18 28.04 87.0 Not Reported 3.36 SE 4.47 SE 3.36 SE No 0.000 No Precipitation 04/16/2019 10:52 AM 04/16/2019 11:09 AM 0.000 0.000 0.000 0.000 0.000 Not Reported Not Reported
04/18/2019 03:54 AM 38.12 36.50 34.52 68.18 28.04 86.0 Not Reported 5.14 SE 4.70 SE 4.70 SE No 0.000 No Precipitation 04/16/2019 10:52 AM 04/16/2019 11:09 AM 0.000 0.000 0.000 0.000 0.000 Not Reported Not Reported
04/18/2019 03:59 AM 37.22 35.78 33.80 68.18 28.04 87.0 Not Reported 2.01 SE 1.79 SE 4.70 SE No 0.000 No Precipitation 04/16/2019 10:52 AM 04/16/2019 11:09 AM 0.000 0.000 0.000 0.000 0.000 Not Reported Not Reported
04/18/2019 04:04 AM 37.58 36.14 34.16 68.18 28.04 87.0 Not Reported 3.36 SE 3.13 SE 5.37 SE No 0.000 No Precipitation 04/16/2019 10:52 AM 04/16/2019 11:09 AM 0.000 0.000 0.000 0.000 0.000 Not Reported Not Reported
04/18/2019 04:09 AM 36.86 35.60 33.80 68.18 28.04 88.0 Not Reported 3.58 SE 2.46 SE 5.37 SE No 0.000 No Precipitation 04/16/2019 10:52 AM 04/16/2019 11:09 AM 0.000 0.000 0.000 0.000 0.000 Not Reported Not Reported
04/18/2019 04:14 AM 37.22 35.78 33.80 68.18 28.04 87.0 Not Reported 3.36 SE 3.13 S 3.80 SE No 0.000 No Precipitation 04/16/2019 10:52 AM 04/16/2019 11:09 AM 0.000 0.000 0.000 0.000 0.000 Not Reported Not Reported
04/18/2019 04:19 AM 36.50 35.24 33.44 68.18 28.04 88.0 Not Reported 3.36 S 2.91 SE 3.80 SE No 0.000 No Precipitation 04/16/2019 10:52 AM 04/16/2019 11:09 AM 0.000 0.000 0.000 0.000 0.000 Not Reported Not Reported
04/18/2019 04:24 AM 35.78 34.52 32.90 68.18 28.04 88.0 Not Reported 3.13 S 2.91 SE 3.36 SE No 0.000 No Precipitation 04/16/2019 10:52 AM 04/16/2019 11:09 AM 0.000 0.000 0.000 0.000 0.000 Not Reported Not Reported
04/18/2019 04:29 AM 35.78 34.88 33.62 68.18 28.04 91.0 Not Reported 2.68 S 2.91 SE 3.36 SE No 0.000 No Precipitation 04/16/2019 10:52 AM 04/16/2019 11:09 AM 0.000 0.000 0.000 0.000 0.000 Not Reported Not Reported
04/18/2019 04:34 AM 35.96 35.06 33.80 68.18 28.04 91.0 Not Reported 3.58 SE 2.68 S 3.36 SE No 0.000 No Precipitation 04/16/2019 10:52 AM 04/16/2019 11:09 AM 0.000 0.000 0.000 0.000 0.000 Not Reported Not Reported
04/18/2019 04:39 AM 35.06 34.16 33.08 68.18 28.04 92.0 Not Reported 2.68 S 3.58 S 3.36 SE No 0.000 No Precipitation 04/16/2019 10:52 AM 04/16/2019 11:09 AM 0.000 0.000 0.000 0.000 0.000 Not Reported Not Reported
04/18/2019 04:44 AM 35.24 34.34 33.08 68.18 28.04 92.0 Not Reported 3.58 S 3.80 S 4.70 SE No 0.000 No Precipitation 04/16/2019 10:52 AM 04/16/2019 11:09 AM 0.000 0.000 0.000 0.000 0.000 Not Reported Not Reported
04/18/2019 04:49 AM 34.52 33.80 32.72 68.18 28.04 93.0 Not Reported 3.13 S 3.36 S 4.70 SE No 0.000 No Precipitation 04/16/2019 10:52 AM 04/16/2019 11:09 AM 0.000 0.000 0.000 0.000 0.000 Not Reported Not Reported
04/18/2019 04:54 AM 35.24 34.52 33.62 68.18 28.04 93.0 Not Reported 4.25 S 4.70 S 3.80 S No 0.000 No Precipitation 04/16/2019 10:52 AM 04/16/2019 11:09 AM 0.000 0.000 0.000 0.000 0.000 Not Reported Not Reported
04/18/2019 04:59 AM 35.42 34.70 33.80 68.18 28.04 93.0 Not Reported 5.59 S 5.37 SE 3.80 S No 0.000 No Precipitation 04/16/2019 10:52 AM 04/16/2019 11:09 AM 0.000 0.000 0.000 0.000 0.000 Not Reported Not Reported
04/18/2019 05:04 AM 36.68 35.60 34.70 68.18 28.04 92.0 Not Reported 5.59 SE 5.37 SE 5.59 S No 0.000 No Precipitation 04/16/2019 10:52 AM 04/16/2019 11:09 AM 0.000 0.000 0.000 0.000 0.000 Not Reported Not Reported
04/18/2019 05:09 AM 35.96 34.88 33.62 68.18 28.04 91.0 Not Reported 5.14 SE 5.82 SE 5.59 S No 0.000 No Precipitation 04/16/2019 10:52 AM 04/16/2019 11:09 AM 0.000 0.000 0.000 0.000 0.000 Not Reported Not Reported
04/18/2019 05:14 AM 35.42 34.16 32.36 68.18 28.04 88.0 Not Reported 6.26 SE 6.26 SE 5.82 SE No 0.000 No Precipitation 04/16/2019 10:52 AM 04/16/2019 11:09 AM 0.000 0.000 0.000 0.000 0.000 Not Reported Not Reported
04/18/2019 05:19 AM 35.24 34.16 32.72 68.18 28.04 90.0 Not Reported 4.70 SE 4.03 SE 5.82 SE No 0.000 No Precipitation 04/16/2019 10:52 AM 04/16/2019 11:09 AM 0.000 0.000 0.000 0.000 0.000 Not Reported Not Reported
04/18/2019 05:24 AM 35.06 34.16 32.90 68.18 28.04 91.0 Not Reported 4.25 S 4.70 SE 6.71 SE No 0.000 No Precipitation 04/16/2019 10:52 AM 04/16/2019 11:09 AM 0.000 0.000 0.000 0.000 0.000 Not Reported Not Reported
04/18/2019 05:29 AM 35.60 34.88 33.80 68.18 28.04 92.0 Not Reported 4.25 S 3.58 S 6.71 SE No 0.000 No Precipitation 04/16/2019 10:52 AM 04/16/2019 11:09 AM 0.000 0.000 0.000 0.000 0.000 Not Reported Not Reported
04/18/2019 05:34 AM 34.88 33.98 32.90 68.18 28.04 92.0 Not Reported 4.25 SE 4.92 SE 5.37 S No 0.000 No Precipitation 04/16/2019 10:52 AM 04/16/2019 11:09 AM 0.000 0.000 0.000 0.000 0.000 Not Reported Not Reported
04/18/2019 05:39 AM 35.24 34.34 33.26 68.18 28.04 92.0 Not Reported 4.70 SE 5.14 SE 5.37 S No 0.000 No Precipitation 04/16/2019 10:52 AM 04/16/2019 11:09 AM 0.000 0.000 0.000 0.000 0.000 Not Reported Not Reported
04/18/2019 05:44 AM 34.88 33.98 32.72 68.18 28.04 91.0 Not Reported 4.92 SE 4.70 SE 5.37 SE No 0.000 No Precipitation 04/16/2019 10:52 AM 04/16/2019 11:09 AM 0.000 0.000 0.000 0.000 0.000 Not Reported Not Reported
04/18/2019 05:49 AM 34.34 33.26 32.00 68.18 28.04 90.0 Not Reported 4.03 SE 5.14 SE 5.37 SE No 0.000 No Precipitation 04/16/2019 10:52 AM 04/16/2019 11:09 AM 0.000 0.000 0.000 0.000 0.000 Not Reported Not Reported
04/18/2019 05:54 AM 33.26 32.18 30.92 68.18 28.04 90.0 Not Reported 4.47 S 4.47 S 5.37 SE No 0.000 No Precipitation 04/16/2019 10:52 AM 04/16/2019 11:09 AM 0.000 0.000 0.000 0.000 0.000 Not Reported Not Reported
04/18/2019 05:59 AM 32.90 32.18 31.28 68.18 28.04 93.0 Not Reported 4.92 S 5.14 S 5.37 SE No 0.000 No Precipitation 04/16/2019 10:52 AM 04/16/2019 11:09 AM 0.000 0.000 0.000 0.000 0.000 Not Reported Not Reported
04/18/2019 06:04 AM 33.44 32.72 32.00 68.18 28.04 93.0 Not Reported 3.80 SE 3.58 SE 5.14 S No 0.000 No Precipitation 04/16/2019 10:52 AM 04/16/2019 11:09 AM 0.000 0.000 0.000 0.000 0.000 Not Reported Not Reported
04/18/2019 06:09 AM 33.98 33.26 32.36 68.18 28.04 93.0 Not Reported 4.03 S 3.36 SE 5.14 S No 0.000 No Precipitation 04/16/2019 10:52 AM 04/16/2019 11:09 AM 0.000 0.000 0.000 0.000 0.000 Not Reported Not Reported
04/18/2019 06:14 AM 34.34 33.62 32.72 68.18 28.04 93.0 Not Reported 4.03 SE 4.47 SE 4.70 SE No 0.000 No Precipitation 04/16/2019 10:52 AM 04/16/2019 11:09 AM 0.000 0.000 0.000 0.000 0.000 Not Reported Not Reported
04/18/2019 06:19 AM 35.06 34.16 32.90 68.18 28.04 91.0 Not Reported 3.36 SE 3.36 SE 4.70 SE No 0.000 No Precipitation 04/16/2019 10:52 AM 04/16/2019 11:09 AM 0.000 0.000 0.000 0.000 0.000 Not Reported Not Reported
04/18/2019 06:24 AM 34.34 33.26 32.00 68.18 28.04 89.0 Not Reported 2.24 S 2.24 S 4.47 SE No 0.000 No Precipitation 04/16/2019 10:52 AM 04/16/2019 11:09 AM 0.000 0.000 0.000 0.000 0.000 Not Reported Not Reported
04/18/2019 06:29 AM 34.16 33.08 31.82 68.18 28.04 90.0 Not Reported 2.91 S 3.36 S 4.47 SE No 0.000 No Precipitation 04/16/2019 10:52 AM 04/16/2019 11:09 AM 0.000 0.000 0.000 0.000 0.000 Not Reported Not Reported
04/18/2019 06:34 AM 34.34 33.44 32.18 68.18 28.04 91.0 Not Reported 3.36 S 3.36 S 3.58 S No 0.000 No Precipitation 04/16/2019 10:52 AM 04/16/2019 11:09 AM 0.000 0.000 0.000 0.000 0.000 Not Reported Not Reported
04/18/2019 06:39 AM 33.98 33.08 31.82 68.18 28.04 91.0 Not Reported 3.80 S 3.58 S 3.58 S No 0.000 No Precipitation 04/16/2019 10:52 AM 04/16/2019 11:09 AM 0.000 0.000 0.000 0.000 0.000 Not Reported Not Reported
04/18/2019 06:44 AM 33.80 32.90 31.82 68.18 28.04 91.0 Not Reported 4.47 S 4.47 S 4.03 S No 0.000 No Precipitation 04/16/2019 10:52 AM 04/16/2019 11:09 AM 0.000 0.000 0.000 0.000 0.000 Not Reported Not Reported
04/18/2019 06:49 AM 33.44 32.54 31.46 68.18 28.04 91.0 Not Reported 3.36 S 2.46 SW 4.03 S No 0.000 No Precipitation 04/16/2019 10:52 AM 04/16/2019 11:09 AM 0.000 0.000 0.000 0.000 0.000 Not Reported Not Reported
04/18/2019 06:54 AM 33.98 33.08 32.00 68.18 28.04 92.0 Not Reported 2.24 S 2.24 SE 4.47 S No 0.000 No Precipitation 04/16/2019 10:52 AM 04/16/2019 11:09 AM 0.000 0.000 0.000 0.000 0.000 Not Reported Not Reported
04/18/2019 06:59 AM 35.06 34.16 32.90 68.18 28.04 91.0 Not Reported 3.13 SE 3.80 SE 4.47 S No 0.000 No Precipitation 04/16/2019 10:52 AM 04/16/2019 11:09 AM 0.000 0.000 0.000 0.000 0.000 Not Reported Not Reported
04/18/2019 07:04 AM 34.52 33.44 32.00 68.18 28.04 90.0 Not Reported 3.58 S 3.36 S 4.25 SE No 0.000 No Precipitation 04/16/2019 10:52 AM 04/16/2019 11:09 AM 0.000 0.000 0.000 0.000 0.000 Not Reported Not Reported
04/18/2019 07:09 AM 34.34 33.44 32.18 68.18 28.04 91.0 Not Reported 3.36 S 3.80 S 4.25 SE No 0.000 No Precipitation 04/16/2019 10:52 AM 04/16/2019 11:09 AM 0.000 0.000 0.000 0.000 0.000 Not Reported Not Reported
04/18/2019 07:14 AM 34.70 33.62 32.18 68.18 28.04 90.0 Not Reported 5.14 SE 5.14 SE 4.92 S No 0.000 No Precipitation 04/16/2019 10:52 AM 04/16/2019 11:09 AM 0.000 0.000 0.000 0.000 0.000 Not Reported Not Reported
04/18/2019 07:19 AM 34.70 33.44 31.82 68.18 28.04 88.0 Not Reported 4.25 SE 2.68 S 4.92 S No 0.000 No Precipitation 04/16/2019 10:52 AM 04/16/2019 11:09 AM 0.000 0.000 0.000 0.000 0.000 Not Reported Not Reported
04/18/2019 07:24 AM 34.16 33.08 31.64 68.18 28.04 89.0 Not Reported 0.89 SE 1.57 SE 5.82 SE No 0.000 No Precipitation 04/16/2019 10:52 AM 04/16/2019 11:09 AM 0.000 0.000 0.000 0.000 0.000 Not Reported Not Reported
04/18/2019 07:29 AM 34.70 33.62 32.18 68.18 28.04 90.0 Not Reported 2.24 SE 2.46 SE 5.82 SE No 0.000 No Precipitation 04/16/2019 10:52 AM 04/16/2019 11:09 AM 0.000 0.000 0.000 0.000 0.000 Not Reported Not Reported
04/18/2019 07:34 AM 35.24 34.16 32.72 68.18 28.04 90.0 Not Reported 2.91 E 3.36 E 2.68 SE No 0.000 No Precipitation 04/16/2019 10:52 AM 04/16/2019 11:09 AM 0.000 0.000 0.000 0.000 0.000 Not Reported Not Reported
04/18/2019 07:39 AM 34.52 33.26 31.64 68.18 28.04 88.0 Not Reported 3.58 SE 4.25 SE 2.68 SE No 0.000 No Precipitation 04/16/2019 10:52 AM 04/16/2019 11:09 AM 0.000 0.000 0.000 0.000 0.000 Not Reported Not Reported
04/18/2019 07:44 AM 33.44 32.36 30.92 68.18 28.04 90.0 Not Reported 3.36 S 2.46 SE 4.25 SE No 0.000 No Precipitation 04/16/2019 10:52 AM 04/16/2019 11:09 AM 0.000 0.000 0.000 0.000 0.000 Not Reported Not Reported
04/18/2019 07:49 AM 33.26 32.36 31.28 68.18 28.04 91.0 Not Reported 3.13 S 3.36 S 4.25 SE No 0.000 No Precipitation 04/16/2019 10:52 AM 04/16/2019 11:09 AM 0.000 0.000 0.000 0.000 0.000 Not Reported Not Reported
04/18/2019 07:54 AM 33.44 32.72 31.82 68.18 28.04 92.0 Not Reported 2.91 S 2.46 S 4.70 S No 0.000 No Precipitation 04/16/2019 10:52 AM 04/16/2019 11:09 AM 0.000 0.000 0.000 0.000 0.000 Not Reported Not Reported
04/18/2019 07:59 AM 34.52 33.44 32.36 68.18 28.04 91.0 Not Reported 2.24 S 2.46 S 4.70 S No 0.000 No Precipitation 04/16/2019 10:52 AM 04/16/2019 11:09 AM 0.000 0.000 0.000 0.000 0.000 Not Reported Not Reported
04/18/2019 08:04 AM 35.42 34.52 33.26 68.18 28.04 91.0 Not Reported 2.24 SE 2.24 S 3.36 S No 0.000 No Precipitation 04/16/2019 10:52 AM 04/16/2019 11:09 AM 0.000 0.000 0.000 0.000 0.000 Not Reported Not Reported
04/18/2019 08:09 AM 36.68 35.42 33.62 68.18 28.04 88.0 Not Reported 2.68 SE 2.01 S 3.36 S No 0.000 No Precipitation 04/16/2019 10:52 AM 04/16/2019 11:09 AM 0.000 0.000 0.000 0.000 0.000 Not Reported Not Reported
04/18/2019 08:14 AM 37.22 35.78 33.80 68.18 28.04 87.0 Not Reported 3.13 S 3.13 S 2.91 SE No 0.000 No Precipitation 04/16/2019 10:52 AM 04/16/2019 11:09 AM 0.000 0.000 0.000 0.000 0.000 Not Reported Not Reported
04/18/2019 08:19 AM 38.30 36.68 34.52 68.18 28.04 85.0 Not Reported 1.79 SE 2.68 SE 2.91 SE No 0.000 No Precipitation 04/16/2019 10:52 AM 04/16/2019 11:09 AM 0.000 0.000 0.000 0.000 0.000 Not Reported Not Reported
04/18/2019 08:24 AM 39.02 37.58 35.42 68.18 28.04 86.0 Not Reported 2.24 SE 2.46 SE 3.58 S No 0.000 No Precipitation 04/16/2019 10:52 AM 04/16/2019 11:09 AM 0.000 0.000 0.000 0.000 0.000 Not Reported Not Reported
04/18/2019 08:29 AM 40.28 38.30 35.78 68.18 28.04 83.0 Not Reported 2.01 SE 3.13 SE 3.58 S No 0.000 No Precipitation 04/16/2019 10:52 AM 04/16/2019 11:09 AM 0.000 0.000 0.000 0.000 0.000 Not Reported Not Reported
04/18/2019 08:34 AM 41.00 38.84 36.32 68.18 28.04 83.0 Not Reported 3.80 SE 2.91 SE 4.25 SE No 0.000 No Precipitation 04/16/2019 10:52 AM 04/16/2019 11:09 AM 0.000 0.000 0.000 0.000 0.000 Not Reported Not Reported
04/18/2019 08:39 AM 42.08 39.74 36.86 68.18 28.04 81.0 Not Reported 3.58 SE 2.01 SE 4.25 SE No 0.000 No Precipitation 04/16/2019 10:52 AM 04/16/2019 11:09 AM 0.000 0.000 0.000 0.000 0.000 Not Reported Not Reported
04/18/2019 08:44 AM 42.98 40.10 36.68 68.18 28.04 78.0 Not Reported 2.01 SE 2.68 SE 4.47 SE No 0.000 No Precipitation 04/16/2019 10:52 AM 04/16/2019 11:09 AM 0.000 0.000 0.000 0.000 0.000 Not Reported Not Reported
04/18/2019 08:49 AM 43.70 40.82 36.86 68.18 28.04 76.0 Not Reported 2.24 SE 2.68 SE 4.47 SE No 0.000 No Precipitation 04/16/2019 10:52 AM 04/16/2019 11:09 AM 0.000 0.000 0.000 0.000 0.000 Not Reported Not Reported
04/18/2019 08:54 AM 44.78 41.36 37.40 68.18 28.04 74.0 Not Reported 3.58 SE 3.13 SE 2.91 SE No 0.000 No Precipitation 04/16/2019 10:52 AM 04/16/2019 11:09 AM 0.000 0.000 0.000 0.000 0.000 Not Reported Not Reported
04/18/2019 08:59 AM 45.50 41.90 37.76 68.18 28.04 74.0 Not Reported 3.36 SE 1.79 E 2.91 SE No 0.000 No Precipitation 04/16/2019 10:52 AM 04/16/2019 11:09 AM 0.000 0.000 0.000 0.000 0.000 Not Reported Not Reported
04/18/2019 09:06 AM 46.94 42.62 38.12 68.18 28.04 69.0 Not Reported 3.36 SE 3.80 SE 4.03 SE No 0.000 No Precipitation 04/16/2019 10:52 AM 04/16/2019 11:09 AM 0.000 0.000 0.000 0.000 0.000 Not Reported Not Reported
04/18/2019 09:09 AM 47.48 42.80 37.58 68.18 28.04 68.0 Not Reported 3.36 SE 2.24 SE 4.03 SE No 0.000 No Precipitation 04/16/2019 10:52 AM 04/16/2019 11:09 AM 0.000 0.000 0.000 0.000 0.000 Not Reported Not Reported
04/18/2019 09:15 AM 47.48 43.52 38.66 68.18 28.04 73.0 Not Reported 3.58 S 3.36 S 3.80 SE No 0.000 No Precipitation 04/16/2019 10:52 AM 04/16/2019 11:09 AM 0.000 0.000 0.000 0.000 0.000 Not Reported Not Reported
04/18/2019 09:19 AM 48.02 43.88 39.56 68.18 28.04 72.0 Not Reported 3.36 S 3.80 S 3.80 SE No 0.000 No Precipitation 04/16/2019 10:52 AM 04/16/2019 11:09 AM 0.000 0.000 0.000 0.000 0.000 Not Reported Not Reported
04/18/2019 09:24 AM 48.38 44.24 39.74 68.18 28.04 71.0 Not Reported 3.13 S 4.03 S 5.14 S No 0.000 No Precipitation 04/16/2019 10:52 AM 04/16/2019 11:09 AM 0.000 0.000 0.000 0.000 0.000 Not Reported Not Reported
04/18/2019 09:29 AM 49.28 44.60 39.74 68.18 28.04 69.0 Not Reported 2.46 S 3.13 S 5.14 S No 0.000 No Precipitation 04/16/2019 10:52 AM 04/16/2019 11:09 AM 0.000 0.000 0.000 0.000 0.000 Not Reported Not Reported
04/18/2019 09:34 AM 50.00 45.14 40.10 68.18 28.04 68.0 Not Reported 2.68 S 1.79 S 4.03 S No 0.000 No Precipitation 04/16/2019 10:52 AM 04/16/2019 11:09 AM 0.000 0.000 0.000 0.000 0.000 Not Reported Not Reported
04/18/2019 09:39 AM 51.26 45.86 40.10 68.18 28.04 65.0 Not Reported 1.57 S 2.91 S 4.03 S No 0.000 No Precipitation 04/16/2019 10:52 AM 04/16/2019 11:09 AM 0.000 0.000 0.000 0.000 0.000 Not Reported Not Reported
04/18/2019 09:44 AM 51.98 46.22 40.28 68.18 28.04 64.0 Not Reported 1.79 S 1.12 S 3.80 S No 0.000 No Precipitation 04/16/2019 10:52 AM 04/16/2019 11:09 AM 0.000 0.000 0.000 0.000 0.000 Not Reported Not Reported
04/18/2019 09:49 AM 53.78 47.48 41.18 68.18 28.04 62.0 Not Reported 0.67 S 0.67 S 3.80 S No 0.000 No Precipitation 04/16/2019 10:52 AM 04/16/2019 11:09 AM 0.000 0.000 0.000 0.000 0.000 Not Reported Not Reported
04/18/2019 09:54 AM 54.14 47.30 40.46 68.18 28.04 59.0 Not Reported 2.01 S 1.34 S 2.01 S No 0.000 No Precipitation 04/16/2019 10:52 AM 04/16/2019 11:09 AM 0.000 0.000 0.000 0.000 0.000 Not Reported Not Reported
04/18/2019 09:59 AM 55.04 48.02 40.82 68.18 28.04 58.0 Not Reported 2.24 SW 1.79 S 2.01 S No 0.000 No Precipitation 04/16/2019 10:52 AM 04/16/2019 11:09 AM 0.000 0.000 0.000 0.000 0.000 Not Reported Not Reported
04/18/2019 10:04 AM 55.76 47.84 39.74 68.18 28.04 54.0 Not Reported 1.12 S 0.45 E 3.36 S No 0.000 No Precipitation 04/16/2019 10:52 AM 04/16/2019 11:09 AM 0.000 0.000 0.000 0.000 0.000 Not Reported Not Reported
04/18/2019 10:09 AM 56.66 48.56 40.46 68.18 28.04 54.0 Not Reported 2.01 SW 1.57 SW 3.36 S No 0.000 No Precipitation 04/16/2019 10:52 AM 04/16/2019 11:09 AM 0.000 0.000 0.000 0.000 0.000 Not Reported Not Reported
04/18/2019 10:14 AM 57.20 48.74 40.64 68.18 28.04 53.0 Not Reported 1.34 S 0.00 S 2.68 S No 0.000 No Precipitation 04/16/2019 10:52 AM 04/16/2019 11:09 AM 0.000 0.000 0.000 0.000 0.000 Not Reported Not Reported
04/18/2019 10:19 AM 57.92 49.64 41.90 68.18 28.04 55.0 Not Reported 0.67 N 1.79 SW 2.68 S No 0.000 No Precipitation 04/16/2019 10:52 AM 04/16/2019 11:09 AM 0.000 0.000 0.000 0.000 0.000 Not Reported Not Reported
04/18/2019 10:24 AM 58.28 49.10 39.56 68.18 28.04 51.0 Not Reported 0.89 W 1.12 NW 2.01 SW No 0.000 No Precipitation 04/16/2019 10:52 AM 04/16/2019 11:09 AM 0.000 0.000 0.000 0.000 0.000 Not Reported Not Reported
04/18/2019 10:29 AM 58.64 49.10 39.56 68.18 28.04 49.0 Not Reported 0.67 NW 0.67 W 2.01 SW No 0.000 No Precipitation 04/16/2019 10:52 AM 04/16/2019 11:09 AM 0.000 0.000 0.000 0.000 0.000 Not Reported Not Reported
04/18/2019 10:34 AM 59.72 49.64 39.74 68.18 28.04 47.0 Not Reported 0.22 SW 1.12 NW 2.01 W No 0.000 No Precipitation 04/16/2019 10:52 AM 04/16/2019 11:09 AM 0.000 0.000 0.000 0.000 0.000 Not Reported Not Reported
04/18/2019 10:39 AM 60.08 48.38 37.04 68.18 28.04 41.0 Not Reported 1.57 NE 2.91 N 2.01 W No 0.000 No Precipitation 04/16/2019 10:52 AM 04/16/2019 11:09 AM 0.000 0.000 0.000 0.000 0.000 Not Reported Not Reported
04/18/2019 10:44 AM 59.54 47.66 34.88 68.18 28.04 39.0 Not Reported 2.24 N 3.80 N 3.13 N No 0.000 No Precipitation 04/16/2019 10:52 AM 04/16/2019 11:09 AM 0.000 0.000 0.000 0.000 0.000 Not Reported Not Reported
04/18/2019 10:49 AM 59.54 47.48 33.80 68.18 28.04 37.0 Not Reported 2.01 N 4.25 N 3.13 N No 0.000 No Precipitation 04/16/2019 10:52 AM 04/16/2019 11:09 AM 0.000 0.000 0.000 0.000 0.000 Not Reported Not Reported
04/18/2019 10:54 AM 59.72 48.38 36.50 68.18 28.04 42.0 Not Reported 3.36 N 2.46 N 4.25 N No 0.000 No Precipitation 04/16/2019 10:52 AM 04/16/2019 11:09 AM 0.000 0.000 0.000 0.000 0.000 Not Reported Not Reported
04/18/2019 10:59 AM 60.62 48.56 36.14 68.18 28.04 39.0 Not Reported 2.68 N 0.67 N 4.25 N No 0.000 No Precipitation 04/16/2019 10:52 AM 04/16/2019 11:09 AM 0.000 0.000 0.000 0.000 0.000 Not Reported Not Reported
04/18/2019 11:04 AM 60.98 48.56 35.24 68.18 28.04 38.0 Not Reported 3.58 N 1.57 NW 3.80 N No 0.000 No Precipitation 04/16/2019 10:52 AM 04/16/2019 11:09 AM 0.000 0.000 0.000 0.000 0.000 Not Reported Not Reported
04/18/2019 11:09 AM 61.34 48.74 35.24 68.18 28.04 37.0 Not Reported 2.24 N 2.46 N 3.80 N No 0.000 No Precipitation 04/16/2019 10:52 AM 04/16/2019 11:09 AM 0.000 0.000 0.000 0.000 0.000 Not Reported Not Reported
04/18/2019 11:14 AM 61.88 48.74 34.34 68.18 28.04 35.0 Not Reported 2.46 N 2.68 N 3.80 N No 0.000 No Precipitation 04/16/2019 10:52 AM 04/16/2019 11:09 AM 0.000 0.000 0.000 0.000 0.000 Not Reported Not Reported
04/18/2019 11:19 AM 62.60 49.46 35.96 68.18 28.04 37.0 Not Reported 2.91 N 2.91 NW 3.80 N No 0.000 No Precipitation 04/16/2019 10:52 AM 04/16/2019 11:09 AM 0.000 0.000 0.000 0.000 0.000 Not Reported Not Reported
04/18/2019 11:24 AM 63.50 50.18 36.32 68.18 28.04 36.0 Not Reported 1.57 N 1.79 N 3.58 NW No 0.000 No Precipitation 04/16/2019 10:52 AM 04/16/2019 11:09 AM 0.000 0.000 0.000 0.000 0.000 Not Reported Not Reported
04/18/2019 11:29 AM 64.40 50.54 35.78 68.18 28.04 34.0 Not Reported 2.91 NW 0.89 W 3.58 NW No 0.000 No Precipitation 04/16/2019 10:52 AM 04/16/2019 11:09 AM 0.000 0.000 0.000 0.000 0.000 Not Reported Not Reported
04/18/2019 11:34 AM 64.40 50.36 36.14 68.18 28.04 35.0 Not Reported 3.13 N 3.58 N 4.92 N No 0.000 No Precipitation 04/16/2019 10:52 AM 04/16/2019 11:09 AM 0.000 0.000 0.000 0.000 0.000 Not Reported Not Reported
04/18/2019 11:40 AM 64.58 50.72 36.14 68.18 28.04 34.0 Not Reported 3.36 N 4.03 SW 5.14 SW No 0.000 No Precipitation 04/16/2019 10:52 AM 04/16/2019 11:09 AM 0.000 0.000 0.000 0.000 0.000 Not Reported Not Reported
04/18/2019 11:44 AM 65.30 51.26 36.14 68.18 28.04 34.0 Not Reported 3.36 N 4.03 NE 5.14 SW No 0.000 No Precipitation 04/16/2019 10:52 AM 04/16/2019 11:09 AM 0.000 0.000 0.000 0.000 0.000 Not Reported Not Reported
04/18/2019 11:49 AM 64.94 49.82 33.44 68.18 28.04 30.0 Not Reported 4.25 NE 1.79 W 5.14 SW No 0.000 No Precipitation 04/16/2019 10:52 AM 04/16/2019 11:09 AM 0.000 0.000 0.000 0.000 0.000 Not Reported Not Reported
04/18/2019 11:54 AM 65.48 50.54 35.06 68.18 28.04 32.0 Not Reported 5.14 E 5.14 E 5.37 NE No 0.000 No Precipitation 04/16/2019 10:52 AM 04/16/2019 11:09 AM 0.000 0.000 0.000 0.000 0.000 Not Reported Not Reported
04/18/2019 11:59 AM 66.92 50.36 33.26 68.18 28.04 28.0 Not Reported 6.71 E 12.75 SE 5.37 NE No 0.000 No Precipitation 04/16/2019 10:52 AM 04/16/2019 11:09 AM 0.000 0.000 0.000 0.000 0.000 Not Reported Not Reported
04/18/2019 12:04 PM 66.56 50.18 32.36 68.18 28.04 27.0 Not Reported 12.30 SE 9.17 SE 12.75 SE No 0.000 No Precipitation 04/16/2019 10:52 AM 04/16/2019 11:09 AM 0.000 0.000 0.000 0.000 0.000 Not Reported Not Reported
04/18/2019 12:09 PM 67.28 50.36 32.00 68.18 28.04 26.0 Not Reported 10.29 SE 10.96 S 12.75 SE No 0.000 No Precipitation 04/16/2019 10:52 AM 04/16/2019 11:09 AM 0.000 0.000 0.000 0.000 0.000 Not Reported Not Reported
04/18/2019 12:19 PM 67.10 50.54 32.54 68.18 28.04 27.0 Not Reported 9.84 SE 11.86 SE 13.65 SE No 0.000 No Precipitation 04/16/2019 10:52 AM 04/16/2019 11:09 AM 0.000 0.000 0.000 0.000 0.000 Not Reported Not Reported
04/18/2019 12:24 PM 67.46 51.08 33.98 68.18 28.04 28.0 Not Reported 13.20 SE 11.41 S 14.54 SE No 0.000 No Precipitation 04/16/2019 10:52 AM 04/16/2019 11:09 AM 0.000 0.000 0.000 0.000 0.000 Not Reported Not Reported
04/18/2019 12:29 PM 67.82 51.26 34.16 68.18 28.04 28.0 Not Reported 13.20 SE 11.41 SE 14.54 SE No 0.000 No Precipitation 04/16/2019 10:52 AM 04/16/2019 11:09 AM 0.000 0.000 0.000 0.000 0.000 Not Reported Not Reported
04/18/2019 12:34 PM 68.00 50.54 31.82 68.18 28.04 25.0 Not Reported 10.51 SE 9.84 SE 17.22 SE No 0.000 No Precipitation 04/16/2019 10:52 AM 04/16/2019 11:09 AM 0.000 0.000 0.000 0.000 0.000 Not Reported Not Reported
04/18/2019 12:40 PM 68.72 50.72 34.52 68.18 28.04 24.0 Not Reported 12.97 SE 14.32 SE 17.22 SE No 0.000 No Precipitation 04/16/2019 10:52 AM 04/16/2019 11:09 AM 0.000 0.000 0.000 0.000 0.000 Not Reported Not Reported
04/18/2019 12:45 PM 67.82 52.34 36.14 68.18 28.04 30.0 Not Reported 12.30 SE 10.07 S 17.67 SE No 0.000 No Precipitation 04/16/2019 10:52 AM 04/16/2019 11:09 AM 0.000 0.000 0.000 0.000 0.000 Not Reported Not Reported
04/18/2019 12:49 PM 68.36 51.26 32.72 68.18 28.04 27.0 Not Reported 12.97 SE 9.17 SE 17.67 SE No 0.000 No Precipitation 04/16/2019 10:52 AM 04/16/2019 11:09 AM 0.000 0.000 0.000 0.000 0.000 Not Reported Not Reported
04/18/2019 12:54 PM 68.36 50.36 30.56 68.18 28.04 24.0 Not Reported 12.08 SE 10.07 SE 15.43 SE No 0.000 No Precipitation 04/16/2019 10:52 AM 04/16/2019 11:09 AM 0.000 0.000 0.000 0.000 0.000 Not Reported Not Reported
04/18/2019 12:59 PM 68.72 51.26 32.90 68.18 28.04 26.0 Not Reported 11.86 SE 14.76 SE 15.43 SE No 0.000 No Precipitation 04/16/2019 10:52 AM 04/16/2019 11:09 AM 0.000 0.000 0.000 0.000 0.000 Not Reported Not Reported
04/18/2019 01:04 PM 68.72 51.26 33.08 68.18 28.04 26.0 Not Reported 11.18 SE 13.42 SE 16.11 SE No 0.000 No Precipitation 04/16/2019 10:52 AM 04/16/2019 11:09 AM 0.000 0.000 0.000 0.000 0.000 Not Reported Not Reported
04/18/2019 01:09 PM 68.72 50.72 31.28 68.18 28.04 24.0 Not Reported 13.42 SE 17.67 SE 16.11 SE No 0.000 No Precipitation 04/16/2019 10:52 AM 04/16/2019 11:09 AM 0.000 0.000 0.000 0.000 0.000 Not Reported Not Reported
04/18/2019 01:14 PM 69.62 51.08 31.46 68.18 28.04 24.0 Not Reported 9.62 SE 14.32 SE 17.67 SE No 0.000 No Precipitation 04/16/2019 10:52 AM 04/16/2019 11:09 AM 0.000 0.000 0.000 0.000 0.000 Not Reported Not Reported
04/18/2019 01:20 PM 69.44 50.90 34.70 68.18 28.04 27.0 Not Reported 12.53 SE 12.30 E 17.67 SE No 0.000 No Precipitation 04/16/2019 10:52 AM 04/16/2019 11:09 AM 0.000 0.000 0.000 0.000 0.000 Not Reported Not Reported
04/18/2019 01:24 PM 70.16 51.44 34.70 68.18 28.04 23.0 Not Reported 9.17 SE 14.76 SE 14.99 SE No 0.000 No Precipitation 04/16/2019 10:52 AM 04/16/2019 11:09 AM 0.000 0.000 0.000 0.000 0.000 Not Reported Not Reported
04/18/2019 01:29 PM 69.08 51.26 32.54 68.18 28.04 25.0 Not Reported 9.84 SE 6.93 SE 14.99 SE No 0.000 No Precipitation 04/16/2019 10:52 AM 04/16/2019 11:09 AM 0.000 0.000 0.000 0.000 0.000 Not Reported Not Reported
04/18/2019 01:34 PM 69.08 50.90 31.46 68.18 28.04 24.0 Not Reported 14.09 SE 10.07 S 15.21 SE No 0.000 No Precipitation 04/16/2019 10:52 AM 04/16/2019 11:09 AM 0.000 0.000 0.000 0.000 0.000 Not Reported Not Reported
04/18/2019 01:39 PM 70.34 51.98 32.72 68.18 28.04 24.0 Not Reported 12.53 SE 15.66 E 15.21 SE No 0.000 No Precipitation 04/16/2019 10:52 AM 04/16/2019 11:09 AM 0.000 0.000 0.000 0.000 0.000 Not Reported Not Reported
04/18/2019 01:44 PM 70.34 52.16 33.26 68.18 28.04 25.0 Not Reported 13.42 SE 12.53 S 17.22 E No 0.000 No Precipitation 04/16/2019 10:52 AM 04/16/2019 11:09 AM 0.000 0.000 0.000 0.000 0.000 Not Reported Not Reported
04/18/2019 01:49 PM 70.88 52.34 33.62 68.18 28.04 25.0 Not Reported 10.07 SE 15.43 SE 17.22 E No 0.000 No Precipitation 04/16/2019 10:52 AM 04/16/2019 11:09 AM 0.000 0.000 0.000 0.000 0.000 Not Reported Not Reported
04/18/2019 01:54 PM 70.52 51.80 33.26 68.18 28.04 25.0 Not Reported 7.61 SE 11.63 SE 17.67 SE No 0.000 No Precipitation 04/16/2019 10:52 AM 04/16/2019 11:09 AM 0.000 0.000 0.000 0.000 0.000 Not Reported Not Reported
04/18/2019 01:59 PM 70.88 53.06 35.78 68.18 28.04 27.0 Not Reported 16.11 SE 13.20 E 17.67 SE No 0.000 No Precipitation 04/16/2019 10:52 AM 04/16/2019 11:09 AM 0.000 0.000 0.000 0.000 0.000 Not Reported Not Reported
04/18/2019 02:04 PM 70.52 52.16 33.26 68.18 28.04 25.0 Not Reported 10.74 SE 12.97 SE 19.01 SE No 0.000 No Precipitation 04/16/2019 10:52 AM 04/16/2019 11:09 AM 0.000 0.000 0.000 0.000 0.000 Not Reported Not Reported
04/18/2019 02:09 PM 71.42 52.70 33.44 68.18 28.04 24.0 Not Reported 13.65 SE 12.08 SE 19.01 SE No 0.000 No Precipitation 04/16/2019 10:52 AM 04/16/2019 11:09 AM 0.000 0.000 0.000 0.000 0.000 Not Reported Not Reported
04/18/2019 02:14 PM 71.24 52.70 34.16 68.18 28.04 25.0 Not Reported 12.97 E 16.55 SE 16.33 SE No 0.000 No Precipitation 04/16/2019 10:52 AM 04/16/2019 11:09 AM 0.000 0.000 0.000 0.000 0.000 Not Reported Not Reported
04/18/2019 02:19 PM 71.24 52.16 32.36 68.18 28.04 23.0 Not Reported 13.20 SE 10.74 E 16.33 SE No 0.000 No Precipitation 04/16/2019 10:52 AM 04/16/2019 11:09 AM 0.000 0.000 0.000 0.000 0.000 Not Reported Not Reported
04/18/2019 02:24 PM 70.70 52.52 35.06 68.18 28.04 25.0 Not Reported 12.08 E 11.86 E 18.34 SE No 0.000 No Precipitation 04/16/2019 10:52 AM 04/16/2019 11:09 AM 0.000 0.000 0.000 0.000 0.000 Not Reported Not Reported
04/18/2019 02:30 PM 71.78 53.96 34.88 68.18 28.04 27.0 Not Reported 10.29 SE 13.87 E 18.34 SE No 0.000 No Precipitation 04/16/2019 10:52 AM 04/16/2019 11:09 AM 0.000 0.000 0.000 0.000 0.000 Not Reported Not Reported
04/18/2019 02:34 PM 72.50 54.14 36.50 68.18 28.04 26.0 Not Reported 11.86 SE 14.54 E 16.33 E No 0.000 No Precipitation 04/16/2019 10:52 AM 04/16/2019 11:09 AM 0.000 0.000 0.000 0.000 0.000 Not Reported Not Reported
04/18/2019 02:39 PM 72.32 53.06 33.80 68.18 28.04 24.0 Not Reported 11.41 SE 12.75 SE 16.33 E No 0.000 No Precipitation 04/16/2019 10:52 AM 04/16/2019 11:09 AM 0.000 0.000 0.000 0.000 0.000 Not Reported Not Reported
04/18/2019 02:44 PM 72.32 53.42 34.70 68.18 28.04 25.0 Not Reported 12.08 E 10.07 E 16.78 E No 0.000 No Precipitation 04/16/2019 10:52 AM 04/16/2019 11:09 AM 0.000 0.000 0.000 0.000 0.000 Not Reported Not Reported
04/18/2019 02:50 PM 71.78 53.06 34.52 68.18 28.04 24.0 Not Reported 12.75 SE 12.08 SE 16.78 E No 0.000 No Precipitation 04/16/2019 10:52 AM 04/16/2019 11:09 AM 0.000 0.000 0.000 0.000 0.000 Not Reported Not Reported
04/18/2019 02:54 PM 72.86 53.06 32.54 68.18 28.04 22.0 Not Reported 8.50 SE 9.62 SE 14.99 SE No 0.000 No Precipitation 04/16/2019 10:52 AM 04/16/2019 11:09 AM 0.000 0.000 0.000 0.000 0.000 Not Reported Not Reported
04/18/2019 03:00 PM 72.50 53.24 35.06 68.18 28.04 24.0 Not Reported 9.17 SE 12.53 SE 14.99 SE No 0.000 No Precipitation 04/16/2019 10:52 AM 04/16/2019 11:09 AM 0.000 0.000 0.000 0.000 0.000 Not Reported Not Reported
04/18/2019 03:04 PM 72.68 53.78 35.42 68.18 28.04 25.0 Not Reported 11.41 SE 12.30 SE 14.76 SE No 0.000 No Precipitation 04/16/2019 10:52 AM 04/16/2019 11:09 AM 0.000 0.000 0.000 0.000 0.000 Not Reported Not Reported
04/18/2019 03:09 PM 73.04 52.70 31.28 68.18 28.04 21.0 Not Reported 9.40 SE 6.26 SE 14.76 SE No 0.000 No Precipitation 04/16/2019 10:52 AM 04/16/2019 11:09 AM 0.000 0.000 0.000 0.000 0.000 Not Reported Not Reported
04/18/2019 03:14 PM 73.22 53.60 33.98 68.18 28.04 23.0 Not Reported 11.86 SE 8.05 SE 13.65 SE No 0.000 No Precipitation 04/16/2019 10:52 AM 04/16/2019 11:09 AM 0.000 0.000 0.000 0.000 0.000 Not Reported Not Reported
04/18/2019 03:19 PM 73.40 53.42 32.36 68.18 28.04 23.0 Not Reported 8.05 SE 7.83 SE 13.65 SE No 0.000 No Precipitation 04/16/2019 10:52 AM 04/16/2019 11:09 AM 0.000 0.000 0.000 0.000 0.000 Not Reported Not Reported
04/18/2019 03:24 PM 73.04 54.14 35.96 68.18 28.04 25.0 Not Reported 14.09 SE 10.51 E 14.99 SE No 0.000 No Precipitation 04/16/2019 10:52 AM 04/16/2019 11:09 AM 0.000 0.000 0.000 0.000 0.000 Not Reported Not Reported
04/18/2019 03:29 PM 72.86 53.60 33.62 68.18 28.04 24.0 Not Reported 9.40 SE 8.50 E 14.99 SE No 0.000 No Precipitation 04/16/2019 10:52 AM 04/16/2019 11:09 AM 0.000 0.000 0.000 0.000 0.000 Not Reported Not Reported
04/18/2019 03:34 PM 73.58 54.68 35.06 68.18 28.04 25.0 Not Reported 10.29 E 12.08 E 15.43 SE No 0.000 No Precipitation 04/16/2019 10:52 AM 04/16/2019 11:09 AM 0.000 0.000 0.000 0.000 0.000 Not Reported Not Reported
04/18/2019 03:39 PM 73.04 54.14 36.32 68.18 28.04 26.0 Not Reported 13.87 E 14.76 E 15.43 SE No 0.000 No Precipitation 04/16/2019 10:52 AM 04/16/2019 11:09 AM 0.000 0.000 0.000 0.000 0.000 Not Reported Not Reported
04/18/2019 03:45 PM 74.30 54.32 35.42 68.18 28.04 23.0 Not Reported 5.82 SE 13.42 E 15.66 E No 0.000 No Precipitation 04/16/2019 10:52 AM 04/16/2019 11:09 AM 0.000 0.000 0.000 0.000 0.000 Not Reported Not Reported
04/18/2019 03:49 PM 74.30 54.32 34.70 68.18 28.04 23.0 Not Reported 11.18 SE 12.75 E 15.66 E No 0.000 No Precipitation 04/16/2019 10:52 AM 04/16/2019 11:09 AM 0.000 0.000 0.000 0.000 0.000 Not Reported Not Reported
04/18/2019 03:54 PM 74.66 53.60 32.00 68.18 28.04 20.0 Not Reported 8.28 SE 9.17 E 14.54 E No 0.000 No Precipitation 04/16/2019 10:52 AM 04/16/2019 11:09 AM 0.000 0.000 0.000 0.000 0.000 Not Reported Not Reported
04/18/2019 04:00 PM 74.66 53.60 32.00 68.18 28.04 20.0 Not Reported 9.62 SE 12.53 SE 14.54 E No 0.000 No Precipitation 04/16/2019 10:52 AM 04/16/2019 11:09 AM 0.000 0.000 0.000 0.000 0.000 Not Reported Not Reported
04/18/2019 04:04 PM 74.66 54.68 35.78 68.18 28.04 24.0 Not Reported 9.84 SE 11.18 E 12.53 SE No 0.000 No Precipitation 04/16/2019 10:52 AM 04/16/2019 11:09 AM 0.000 0.000 0.000 0.000 0.000 Not Reported Not Reported
04/18/2019 04:09 PM 74.48 53.42 31.64 68.18 28.04 20.0 Not Reported 11.18 E 10.07 SE 12.53 SE No 0.000 No Precipitation 04/16/2019 10:52 AM 04/16/2019 11:09 AM 0.000 0.000 0.000 0.000 0.000 Not Reported Not Reported
04/18/2019 04:14 PM 75.02 54.32 33.80 68.18 28.04 22.0 Not Reported 6.71 E 6.71 SE 12.75 SE No 0.000 No Precipitation 04/16/2019 10:52 AM 04/16/2019 11:09 AM 0.000 0.000 0.000 0.000 0.000 Not Reported Not Reported
04/18/2019 04:19 PM 75.20 54.14 32.90 68.18 28.04 21.0 Not Reported 12.53 E 12.08 E 12.75 SE No 0.000 No Precipitation 04/16/2019 10:52 AM 04/16/2019 11:09 AM 0.000 0.000 0.000 0.000 0.000 Not Reported Not Reported
04/18/2019 04:24 PM 75.38 53.96 32.36 68.18 28.04 20.0 Not Reported 10.29 SE 11.18 E 13.87 E No 0.000 No Precipitation 04/16/2019 10:52 AM 04/16/2019 11:09 AM 0.000 0.000 0.000 0.000 0.000 Not Reported Not Reported
04/18/2019 04:29 PM 75.38 53.24 29.66 68.18 28.04 18.0 Not Reported 8.95 SE 7.83 E 13.87 E No 0.000 No Precipitation 04/16/2019 10:52 AM 04/16/2019 11:09 AM 0.000 0.000 0.000 0.000 0.000 Not Reported Not Reported
04/18/2019 04:34 PM 75.92 54.50 33.44 68.18 28.04 21.0 Not Reported 7.16 E 8.95 E 12.97 E No 0.000 No Precipitation 04/16/2019 10:52 AM 04/16/2019 11:09 AM 0.000 0.000 0.000 0.000 0.000 Not Reported Not Reported
04/18/2019 04:39 PM 75.38 53.42 30.74 68.18 28.04 19.0 Not Reported 10.51 SE 9.62 E 12.97 E No 0.000 No Precipitation 04/16/2019 10:52 AM 04/16/2019 11:09 AM 0.000 0.000 0.000 0.000 0.000 Not Reported Not Reported
04/18/2019 04:44 PM 75.38 53.06 28.94 68.18 28.04 17.0 Not Reported 9.62 E 9.62 E 11.41 SE No 0.000 No Precipitation 04/16/2019 10:52 AM 04/16/2019 11:09 AM 0.000 0.000 0.000 0.000 0.000 Not Reported Not Reported
04/18/2019 04:49 PM 76.28 54.86 33.80 68.18 28.04 21.0 Not Reported 5.59 E 7.16 SE 11.41 SE No 0.000 No Precipitation 04/16/2019 10:52 AM 04/16/2019 11:09 AM 0.000 0.000 0.000 0.000 0.000 Not Reported Not Reported
04/18/2019 04:54 PM 75.92 53.96 31.46 68.18 28.04 19.0 Not Reported 7.38 SE 5.82 E 12.53 SE No 0.000 No Precipitation 04/16/2019 10:52 AM 04/16/2019 11:09 AM 0.000 0.000 0.000 0.000 0.000 Not Reported Not Reported
04/18/2019 04:59 PM 76.46 54.50 32.72 68.18 28.04 20.0 Not Reported 4.92 SE 10.29 E 12.53 SE No 0.000 No Precipitation 04/16/2019 10:52 AM 04/16/2019 11:09 AM 0.000 0.000 0.000 0.000 0.000 Not Reported Not Reported
04/18/2019 05:04 PM 75.74 52.88 27.50 68.18 28.04 16.0 Not Reported 9.84 SE 11.63 SE 13.20 SE No 0.000 No Precipitation 04/16/2019 10:52 AM 04/16/2019 11:09 AM 0.000 0.000 0.000 0.000 0.000 Not Reported Not Reported
04/18/2019 05:09 PM 76.10 54.32 32.72 68.18 28.04 20.0 Not Reported 6.93 SE 8.95 E 13.20 SE No 0.000 No Precipitation 04/16/2019 10:52 AM 04/16/2019 11:09 AM 0.000 0.000 0.000 0.000 0.000 Not Reported Not Reported
04/18/2019 05:14 PM 76.10 53.60 29.84 68.18 28.04 18.0 Not Reported 9.62 SE 4.70 E 13.20 SE No 0.000 No Precipitation 04/16/2019 10:52 AM 04/16/2019 11:09 AM 0.000 0.000 0.000 0.000 0.000 Not Reported Not Reported
04/18/2019 05:19 PM 76.28 53.60 31.82 68.18 28.04 18.0 Not Reported 6.26 E 9.84 E 13.20 SE No 0.000 No Precipitation 04/16/2019 10:52 AM 04/16/2019 11:09 AM 0.000 0.000 0.000 0.000 0.000 Not Reported Not Reported
04/18/2019 05:24 PM 75.74 53.96 31.64 68.18 28.04 19.0 Not Reported 10.29 E 10.51 E 12.97 SE No 0.000 No Precipitation 04/16/2019 10:52 AM 04/16/2019 11:09 AM 0.000 0.000 0.000 0.000 0.000 Not Reported Not Reported
04/18/2019 05:29 PM 76.28 54.50 33.08 68.18 28.04 20.0 Not Reported 6.71 SE 8.50 E 12.97 SE No 0.000 No Precipitation 04/16/2019 10:52 AM 04/16/2019 11:09 AM 0.000 0.000 0.000 0.000 0.000 Not Reported Not Reported
04/18/2019 05:34 PM 76.10 53.06 28.04 68.18 28.04 16.0 Not Reported 5.59 E 6.71 SE 12.97 SE No 0.000 No Precipitation 04/16/2019 10:52 AM 04/16/2019 11:09 AM 0.000 0.000 0.000 0.000 0.000 Not Reported Not Reported
04/18/2019 05:39 PM 76.64 53.60 28.58 68.18 28.04 16.0 Not Reported 5.14 SE 3.58 S 12.97 SE No 0.000 No Precipitation 04/16/2019 10:52 AM 04/16/2019 11:09 AM 0.000 0.000 0.000 0.000 0.000 Not Reported Not Reported
04/18/2019 05:44 PM 76.10 55.04 34.88 68.18 28.04 22.0 Not Reported 7.16 E 6.93 E 8.28 E No 0.000 No Precipitation 04/16/2019 10:52 AM 04/16/2019 11:09 AM 0.000 0.000 0.000 0.000 0.000 Not Reported Not Reported
04/18/2019 05:49 PM 76.10 53.60 29.48 68.18 28.04 17.0 Not Reported 5.82 E 4.03 E 8.28 E No 0.000 No Precipitation 04/16/2019 10:52 AM 04/16/2019 11:09 AM 0.000 0.000 0.000 0.000 0.000 Not Reported Not Reported
04/18/2019 05:54 PM 76.64 53.78 29.66 68.18 28.04 17.0 Not Reported 4.92 NE 4.03 NE 8.72 E No 0.000 No Precipitation 04/16/2019 10:52 AM 04/16/2019 11:09 AM 0.000 0.000 0.000 0.000 0.000 Not Reported Not Reported
04/18/2019 05:59 PM 76.82 53.96 30.38 68.18 28.04 18.0 Not Reported 1.12 SE 1.79 E 8.72 E No 0.000 No Precipitation 04/16/2019 10:52 AM 04/16/2019 11:09 AM 0.000 0.000 0.000 0.000 0.000 Not Reported Not Reported
04/18/2019 06:04 PM 77.18 55.22 33.80 77.00 32.72 20.0 Not Reported 3.13 SE 2.01 S 5.82 NE No 0.000 No Precipitation 04/16/2019 10:52 AM 04/16/2019 11:09 AM 0.000 0.000 0.000 0.000 0.000 Not Reported Not Reported
04/18/2019 06:09 PM 76.82 53.78 29.66 77.00 32.72 17.0 Not Reported 3.36 SE 4.47 S 5.82 NE No 0.000 No Precipitation 04/16/2019 10:52 AM 04/16/2019 11:09 AM 0.000 0.000 0.000 0.000 0.000 Not Reported Not Reported
04/18/2019 06:14 PM 76.82 54.32 31.28 77.00 32.72 18.0 Not Reported 2.46 W 3.36 N 5.59 S No 0.000 No Precipitation 04/16/2019 10:52 AM 04/16/2019 11:09 AM 0.000 0.000 0.000 0.000 0.000 Not Reported Not Reported
04/18/2019 06:19 PM 76.82 54.68 32.90 77.00 32.72 20.0 Not Reported 3.58 NW 4.70 NW 5.59 S No 0.000 No Precipitation 04/16/2019 10:52 AM 04/16/2019 11:09 AM 0.000 0.000 0.000 0.000 0.000 Not Reported Not Reported
04/18/2019 06:24 PM 75.38 55.04 35.78 77.00 32.72 23.0 Not Reported 12.75 NW 15.21 N 6.49 W No 0.000 No Precipitation 04/16/2019 10:52 AM 04/16/2019 11:09 AM 0.000 0.000 0.000 0.000 0.000 Not Reported Not Reported
04/18/2019 06:29 PM 74.66 55.58 38.12 77.00 32.72 26.0 Not Reported 14.54 N 13.65 N 6.49 W No 0.000 No Precipitation 04/16/2019 10:52 AM 04/16/2019 11:09 AM 0.000 0.000 0.000 0.000 0.000 Not Reported Not Reported
04/18/2019 06:34 PM 74.48 55.04 37.22 77.00 32.72 25.0 Not Reported 13.20 N 11.41 N 16.33 N No 0.000 No Precipitation 04/16/2019 10:52 AM 04/16/2019 11:09 AM 0.000 0.000 0.000 0.000 0.000 Not Reported Not Reported
04/18/2019 06:39 PM 73.94 54.68 36.32 77.00 32.72 25.0 Not Reported 12.08 N 11.86 N 16.33 N No 0.000 No Precipitation 04/16/2019 10:52 AM 04/16/2019 11:09 AM 0.000 0.000 0.000 0.000 0.000 Not Reported Not Reported
04/18/2019 06:44 PM 74.30 55.22 37.76 77.00 32.72 26.0 Not Reported 10.29 N 13.42 N 15.21 N No 0.000 No Precipitation 04/16/2019 10:52 AM 04/16/2019 11:09 AM 0.000 0.000 0.000 0.000 0.000 Not Reported Not Reported
04/18/2019 06:49 PM 74.12 54.50 35.96 77.00 32.72 24.0 Not Reported 9.84 N 6.04 N 15.21 N No 0.000 No Precipitation 04/16/2019 10:52 AM 04/16/2019 11:09 AM 0.000 0.000 0.000 0.000 0.000 Not Reported Not Reported
04/18/2019 06:54 PM 74.30 55.04 37.40 77.00 32.72 26.0 Not Reported 8.72 N 7.83 N 14.09 NE No 0.000 No Precipitation 04/16/2019 10:52 AM 04/16/2019 11:09 AM 0.000 0.000 0.000 0.000 0.000 Not Reported Not Reported
04/18/2019 06:59 PM 73.94 54.32 33.80 77.00 32.72 25.0 Not Reported 9.17 N 8.95 N 14.09 NE No 0.000 No Precipitation 04/16/2019 10:52 AM 04/16/2019 11:09 AM 0.000 0.000 0.000 0.000 0.000 Not Reported Not Reported
04/18/2019 07:04 PM 73.94 54.32 35.42 77.00 32.72 24.0 Not Reported 8.72 N 9.40 N 11.86 N No 0.000 No Precipitation 04/16/2019 10:52 AM 04/16/2019 11:09 AM 0.000 0.000 0.000 0.000 0.000 Not Reported Not Reported
04/18/2019 07:09 PM 74.12 55.22 38.30 77.00 32.72 27.0 Not Reported 7.38 N 10.51 N 11.86 N No 0.000 No Precipitation 04/16/2019 10:52 AM 04/16/2019 11:09 AM 0.000 0.000 0.000 0.000 0.000 Not Reported Not Reported
04/18/2019 07:14 PM 73.76 54.50 36.32 77.00 32.72 25.0 Not Reported 7.83 N 9.62 N 10.51 N No 0.000 No Precipitation 04/16/2019 10:52 AM 04/16/2019 11:09 AM 0.000 0.000 0.000 0.000 0.000 Not Reported Not Reported
04/18/2019 07:19 PM 73.04 54.50 37.22 77.00 32.72 27.0 Not Reported 10.96 N 11.18 N 10.51 N No 0.000 No Precipitation 04/16/2019 10:52 AM 04/16/2019 11:09 AM 0.000 0.000 0.000 0.000 0.000 Not Reported Not Reported
04/18/2019 07:24 PM 72.68 53.24 33.80 77.00 32.72 23.0 Not Reported 12.75 N 12.30 N 12.75 N No 0.000 No Precipitation 04/16/2019 10:52 AM 04/16/2019 11:09 AM 0.000 0.000 0.000 0.000 0.000 Not Reported Not Reported
04/18/2019 07:29 PM 72.86 53.24 33.62 77.00 32.72 23.0 Not Reported 8.72 N 8.95 NE 12.75 N No 0.000 No Precipitation 04/16/2019 10:52 AM 04/16/2019 11:09 AM 0.000 0.000 0.000 0.000 0.000 Not Reported Not Reported
04/18/2019 07:34 PM 72.68 54.50 37.76 77.00 32.72 27.0 Not Reported 8.72 N 8.72 N 13.20 N No 0.000 No Precipitation 04/16/2019 10:52 AM 04/16/2019 11:09 AM 0.000 0.000 0.000 0.000 0.000 Not Reported Not Reported
04/18/2019 07:39 PM 72.14 54.32 37.76 77.00 32.72 28.0 Not Reported 8.95 N 8.72 N 13.20 N No 0.000 No Precipitation 04/16/2019 10:52 AM 04/16/2019 11:09 AM 0.000 0.000 0.000 0.000 0.000 Not Reported Not Reported
04/18/2019 07:44 PM 71.60 54.14 38.12 77.00 32.72 29.0 Not Reported 7.61 N 7.61 N 10.29 N No 0.000 No Precipitation 04/16/2019 10:52 AM 04/16/2019 11:09 AM 0.000 0.000 0.000 0.000 0.000 Not Reported Not Reported
04/18/2019 07:49 PM 71.60 54.14 37.94 77.00 32.72 29.0 Not Reported 6.26 N 6.26 N 10.29 N No 0.000 No Precipitation 04/16/2019 10:52 AM 04/16/2019 11:09 AM 0.000 0.000 0.000 0.000 0.000 Not Reported Not Reported
04/18/2019 07:54 PM 71.60 54.14 37.76 77.00 32.72 28.0 Not Reported 7.61 N 6.93 N 7.83 N No 0.000 No Precipitation 04/16/2019 10:52 AM 04/16/2019 11:09 AM 0.000 0.000 0.000 0.000 0.000 Not Reported Not Reported
04/18/2019 07:59 PM 71.06 53.60 37.22 77.00 32.72 29.0 Not Reported 7.38 N 8.72 N 7.83 N No 0.000 No Precipitation 04/16/2019 10:52 AM 04/16/2019 11:09 AM 0.000 0.000 0.000 0.000 0.000 Not Reported Not Reported
04/18/2019 08:04 PM 70.70 53.78 37.76 77.00 32.72 29.0 Not Reported 5.82 N 5.37 N 10.29 N No 0.000 No Precipitation 04/16/2019 10:52 AM 04/16/2019 11:09 AM 0.000 0.000 0.000 0.000 0.000 Not Reported Not Reported
04/18/2019 08:09 PM 69.80 52.88 36.50 77.00 32.72 29.0 Not Reported 5.37 N 2.68 NW 10.29 N No 0.000 No Precipitation 04/16/2019 10:52 AM 04/16/2019 11:09 AM 0.000 0.000 0.000 0.000 0.000 Not Reported Not Reported
04/18/2019 08:14 PM 65.84 51.44 37.22 77.00 32.72 34.0 Not Reported 5.37 W 8.05 W 7.38 N No 0.000 No Precipitation 04/16/2019 10:52 AM 04/16/2019 11:09 AM 0.000 0.000 0.000 0.000 0.000 Not Reported Not Reported
04/18/2019 08:19 PM 64.40 51.62 39.56 77.00 32.72 39.0 Not Reported 6.04 W 4.92 SW 7.38 N No 0.000 No Precipitation 04/16/2019 10:52 AM 04/16/2019 11:09 AM 0.000 0.000 0.000 0.000 0.000 Not Reported Not Reported
04/18/2019 08:24 PM 63.68 51.08 38.84 77.00 32.72 39.0 Not Reported 5.82 W 5.59 W 8.05 W No 0.000 No Precipitation 04/16/2019 10:52 AM 04/16/2019 11:09 AM 0.000 0.000 0.000 0.000 0.000 Not Reported Not Reported
04/18/2019 08:29 PM 62.78 50.72 39.02 77.00 32.72 41.0 Not Reported 7.16 W 5.59 W 8.05 W No 0.000 No Precipitation 04/16/2019 10:52 AM 04/16/2019 11:09 AM 0.000 0.000 0.000 0.000 0.000 Not Reported Not Reported
04/18/2019 08:34 PM 61.88 50.54 40.10 77.00 32.72 44.0 Not Reported 8.28 SW 8.50 W 7.61 W No 0.000 No Precipitation 04/16/2019 10:52 AM 04/16/2019 11:09 AM 0.000 0.000 0.000 0.000 0.000 Not Reported Not Reported
04/18/2019 08:39 PM 61.52 50.36 39.56 77.00 32.72 44.0 Not Reported 6.49 W 8.28 SW 7.61 W No 0.000 No Precipitation 04/16/2019 10:52 AM 04/16/2019 11:09 AM 0.000 0.000 0.000 0.000 0.000 Not Reported Not Reported
04/18/2019 08:44 PM 61.16 50.18 39.38 77.00 32.72 44.0 Not Reported 8.50 SW 7.83 SW 8.95 SW No 0.000 No Precipitation 04/16/2019 10:52 AM 04/16/2019 11:09 AM 0.000 0.000 0.000 0.000 0.000 Not Reported Not Reported
04/18/2019 08:49 PM 60.62 49.64 38.84 77.00 32.72 44.0 Not Reported 7.83 SW 8.28 W 8.95 SW No 0.000 No Precipitation 04/16/2019 10:52 AM 04/16/2019 11:09 AM 0.000 0.000 0.000 0.000 0.000 Not Reported Not Reported
04/18/2019 08:54 PM 60.08 49.64 39.20 77.00 32.72 45.0 Not Reported 6.93 W 7.16 SW 8.72 SW No 0.000 No Precipitation 04/16/2019 10:52 AM 04/16/2019 11:09 AM 0.000 0.000 0.000 0.000 0.000 Not Reported Not Reported
04/18/2019 08:59 PM 60.08 49.82 39.74 77.00 32.72 46.0 Not Reported 6.71 W 7.83 SW 8.72 SW No 0.000 No Precipitation 04/16/2019 10:52 AM 04/16/2019 11:09 AM 0.000 0.000 0.000 0.000 0.000 Not Reported Not Reported
04/18/2019 09:04 PM 59.90 49.46 39.38 77.00 32.72 46.0 Not Reported 5.59 W 4.25 SW 9.17 SW No 0.000 No Precipitation 04/16/2019 10:52 AM 04/16/2019 11:09 AM 0.000 0.000 0.000 0.000 0.000 Not Reported Not Reported
04/18/2019 09:09 PM 59.54 49.28 39.02 77.00 32.72 46.0 Not Reported 2.91 W 2.24 NW 9.17 SW No 0.000 No Precipitation 04/16/2019 10:52 AM 04/16/2019 11:09 AM 0.000 0.000 0.000 0.000 0.000 Not Reported Not Reported
04/18/2019 09:14 PM 59.90 49.10 38.12 77.00 32.72 44.0 Not Reported 0.89 NW 1.79 NW 7.83 W No 0.000 No Precipitation 04/16/2019 10:52 AM 04/16/2019 11:09 AM 0.000 0.000 0.000 0.000 0.000 Not Reported Not Reported
04/18/2019 09:19 PM 60.80 49.10 37.40 77.00 32.72 41.0 Not Reported 1.79 NW 2.01 W 7.83 W No 0.000 No Precipitation 04/16/2019 10:52 AM 04/16/2019 11:09 AM 0.000 0.000 0.000 0.000 0.000 Not Reported Not Reported
04/18/2019 09:24 PM 61.16 49.28 37.04 77.00 32.72 40.0 Not Reported 6.26 W 6.04 W 2.68 W No 0.000 No Precipitation 04/16/2019 10:52 AM 04/16/2019 11:09 AM 0.000 0.000 0.000 0.000 0.000 Not Reported Not Reported
04/18/2019 09:29 PM 60.80 48.92 36.68 77.00 32.72 40.0 Not Reported 7.38 W 7.61 SW 2.68 W No 0.000 No Precipitation 04/16/2019 10:52 AM 04/16/2019 11:09 AM 0.000 0.000 0.000 0.000 0.000 Not Reported Not Reported
04/18/2019 09:34 PM 60.08 48.92 37.40 77.00 32.72 42.0 Not Reported 6.49 W 6.26 W 8.28 W No 0.000 No Precipitation 04/16/2019 10:52 AM 04/16/2019 11:09 AM 0.000 0.000 0.000 0.000 0.000 Not Reported Not Reported
04/18/2019 09:39 PM 59.54 49.10 38.84 77.00 32.72 46.0 Not Reported 6.71 SW 5.37 S 8.28 W No 0.000 No Precipitation 04/16/2019 10:52 AM 04/16/2019 11:09 AM 0.000 0.000 0.000 0.000 0.000 Not Reported Not Reported
04/18/2019 09:44 PM 56.48 47.66 38.66 77.00 32.72 51.0 Not Reported 5.37 S 6.04 S 7.38 W No 0.000 No Precipitation 04/16/2019 10:52 AM 04/16/2019 11:09 AM 0.000 0.000 0.000 0.000 0.000 Not Reported Not Reported
04/18/2019 09:49 PM 57.56 48.20 39.02 77.00 32.72 49.0 Not Reported 4.92 S 3.36 S 7.38 W No 0.000 No Precipitation 04/16/2019 10:52 AM 04/16/2019 11:09 AM 0.000 0.000 0.000 0.000 0.000 Not Reported Not Reported
04/18/2019 09:54 PM 55.94 47.66 39.38 77.00 32.72 53.0 Not Reported 2.01 S 2.91 S 6.26 S No 0.000 No Precipitation 04/16/2019 10:52 AM 04/16/2019 11:09 AM 0.000 0.000 0.000 0.000 0.000 Not Reported Not Reported
04/18/2019 09:59 PM 55.58 47.66 39.74 77.00 32.72 55.0 Not Reported 1.79 S 2.91 SW 6.26 S No 0.000 No Precipitation 04/16/2019 10:52 AM 04/16/2019 11:09 AM 0.000 0.000 0.000 0.000 0.000 Not Reported Not Reported
04/18/2019 10:04 PM 55.40 47.66 39.92 77.00 32.72 55.0 Not Reported 2.46 S 2.01 S 3.58 S No 0.000 No Precipitation 04/16/2019 10:52 AM 04/16/2019 11:09 AM 0.000 0.000 0.000 0.000 0.000 Not Reported Not Reported
04/18/2019 10:09 PM 55.58 47.84 40.28 77.00 32.72 56.0 Not Reported 3.13 S 1.79 S 3.58 S No 0.000 No Precipitation 04/16/2019 10:52 AM 04/16/2019 11:09 AM 0.000 0.000 0.000 0.000 0.000 Not Reported Not Reported
04/18/2019 10:14 PM 56.12 48.02 39.92 77.00 32.72 54.0 Not Reported 3.13 S 3.13 S 3.80 S No 0.000 No Precipitation 04/16/2019 10:52 AM 04/16/2019 11:09 AM 0.000 0.000 0.000 0.000 0.000 Not Reported Not Reported
04/18/2019 10:19 PM 55.40 47.66 39.74 77.00 32.72 55.0 Not Reported 3.80 S 3.13 SW 3.80 S No 0.000 No Precipitation 04/16/2019 10:52 AM 04/16/2019 11:09 AM 0.000 0.000 0.000 0.000 0.000 Not Reported Not Reported
04/18/2019 10:24 PM 54.86 47.12 39.38 77.00 32.72 55.0 Not Reported 2.24 SW 1.12 SW 4.03 S No 0.000 No Precipitation 04/16/2019 10:52 AM 04/16/2019 11:09 AM 0.000 0.000 0.000 0.000 0.000 Not Reported Not Reported
04/18/2019 10:29 PM 53.96 47.30 40.46 77.00 32.72 60.0 Not Reported 0.00 N 0.45 SW 4.03 S No 0.000 No Precipitation 04/16/2019 10:52 AM 04/16/2019 11:09 AM 0.000 0.000 0.000 0.000 0.000 Not Reported Not Reported
04/18/2019 10:34 PM 52.88 46.76 40.46 77.00 32.72 62.0 Not Reported 0.67 W 1.12 SW 3.13 SW No 0.000 No Precipitation 04/16/2019 10:52 AM 04/16/2019 11:09 AM 0.000 0.000 0.000 0.000 0.000 Not Reported Not Reported
04/18/2019 10:39 PM 51.98 46.76 41.36 77.00 32.72 67.0 Not Reported 4.92 SE 4.70 E 3.13 SW No 0.000 No Precipitation 04/16/2019 10:52 AM 04/16/2019 11:09 AM 0.000 0.000 0.000 0.000 0.000 Not Reported Not Reported
04/18/2019 10:44 PM 51.44 46.22 41.18 77.00 32.72 67.0 Not Reported 5.14 SE 4.03 SE 8.50 SE No 0.000 No Precipitation 04/16/2019 10:52 AM 04/16/2019 11:09 AM 0.000 0.000 0.000 0.000 0.000 Not Reported Not Reported
04/18/2019 10:49 PM 49.82 45.32 41.00 77.00 32.72 71.0 Not Reported 3.58 SE 4.47 SE 8.50 SE No 0.000 No Precipitation 04/16/2019 10:52 AM 04/16/2019 11:09 AM 0.000 0.000 0.000 0.000 0.000 Not Reported Not Reported
04/18/2019 10:54 PM 50.18 45.86 41.36 77.00 32.72 71.0 Not Reported 4.25 SE 4.92 SE 5.82 SE No 0.000 No Precipitation 04/16/2019 10:52 AM 04/16/2019 11:09 AM 0.000 0.000 0.000 0.000 0.000 Not Reported Not Reported
04/18/2019 10:59 PM 50.36 45.68 41.00 77.00 32.72 70.0 Not Reported 4.70 SE 5.37 SE 5.82 SE No 0.000 No Precipitation 04/16/2019 10:52 AM 04/16/2019 11:09 AM 0.000 0.000 0.000 0.000 0.000 Not Reported Not Reported
04/18/2019 11:04 PM 49.28 45.32 41.18 77.00 32.72 73.0 Not Reported 4.70 SE 3.80 SE 5.37 SE No 0.000 No Precipitation 04/16/2019 10:52 AM 04/16/2019 11:09 AM 0.000 0.000 0.000 0.000 0.000 Not Reported Not Reported
04/18/2019 11:09 PM 50.36 45.68 41.00 77.00 32.72 70.0 Not Reported 4.03 SE 4.03 SE 5.37 SE No 0.000 No Precipitation 04/16/2019 10:52 AM 04/16/2019 11:09 AM 0.000 0.000 0.000 0.000 0.000 Not Reported Not Reported
04/18/2019 11:14 PM 49.10 44.78 40.28 77.00 32.72 71.0 Not Reported 3.36 S 3.58 S 4.92 SE No 0.000 No Precipitation 04/16/2019 10:52 AM 04/16/2019 11:09 AM 0.000 0.000 0.000 0.000 0.000 Not Reported Not Reported
04/18/2019 11:19 PM 49.46 44.78 39.92 77.00 32.72 69.0 Not Reported 3.36 S 3.80 SW 4.92 SE No 0.000 No Precipitation 04/16/2019 10:52 AM 04/16/2019 11:09 AM 0.000 0.000 0.000 0.000 0.000 Not Reported Not Reported
04/18/2019 11:24 PM 51.80 45.86 39.74 77.00 32.72 63.0 Not Reported 4.03 S 4.47 S 4.25 S No 0.000 No Precipitation 04/16/2019 10:52 AM 04/16/2019 11:09 AM 0.000 0.000 0.000 0.000 0.000 Not Reported Not Reported
04/18/2019 11:29 PM 53.42 46.58 39.74 77.00 32.72 59.0 Not Reported 5.14 S 5.82 S 4.25 S No 0.000 No Precipitation 04/16/2019 10:52 AM 04/16/2019 11:09 AM 0.000 0.000 0.000 0.000 0.000 Not Reported Not Reported
04/18/2019 11:34 PM 50.90 45.50 39.56 77.00 32.72 65.0 Not Reported 3.80 S 4.03 S 5.82 S No 0.000 No Precipitation 04/16/2019 10:52 AM 04/16/2019 11:09 AM 0.000 0.000 0.000 0.000 0.000 Not Reported Not Reported
04/18/2019 11:39 PM 50.54 45.32 39.74 77.00 32.72 66.0 Not Reported 4.25 S 4.25 S 5.82 S No 0.000 No Precipitation 04/16/2019 10:52 AM 04/16/2019 11:09 AM 0.000 0.000 0.000 0.000 0.000 Not Reported Not Reported
04/18/2019 11:44 PM 50.18 44.96 39.56 77.00 32.72 66.0 Not Reported 3.58 S 2.68 S 4.70 S No 0.000 No Precipitation 04/16/2019 10:52 AM 04/16/2019 11:09 AM 0.000 0.000 0.000 0.000 0.000 Not Reported Not Reported
04/18/2019 11:49 PM 48.56 44.96 41.18 77.00 32.72 75.0 Not Reported 1.12 SE 2.91 E 4.70 S No 0.000 No Precipitation 04/16/2019 10:52 AM 04/16/2019 11:09 AM 0.000 0.000 0.000 0.000 0.000 Not Reported Not Reported
04/18/2019 11:54 PM 47.66 44.60 41.18 77.00 32.72 78.0 Not Reported 4.03 E 3.58 E 4.47 S No 0.000 No Precipitation 04/16/2019 10:52 AM 04/16/2019 11:09 AM 0.000 0.000 0.000 0.000 0.000 Not Reported Not Reported
04/18/2019 11:59 PM 47.84 44.60 41.36 77.00 32.72 78.0 Not Reported 6.04 E 5.59 E 4.47 S No 0.000 No Precipitation 04/16/2019 10:52 AM 04/16/2019 11:09 AM 0.000 0.000 0.000 0.000 0.000 Not Reported Not Reported